Time;durP1;ratioP1;P1;durP2;ratioP2;P2;SDS_P1;SDS_P2;PMS_P1;PMS_P2;Temp;Humidity;BMP_temperature;BMP_pressure;BME280_temperature;BME280_humidity;BME280_pressure;Samples;Min_cycle;Max_cycle;Signal;HPM_P1;HPM_P2
2022/06/04 00:04:53;;;;;;;8.27;4.55;;;;;;;;;;10503856;28;20040;-75
2022/06/04 00:15:33;;;;;;;10.13;4.60;;;;;;;;;;10451473;28;20048;-76
2022/06/04 00:20:36;;;;;;;9.57;4.28;;;;;;;;;;10496125;28;20119;-75
2022/06/04 00:25:42;;;;;;;9.45;4.85;;;;;;;;;;10516044;28;20054;-75
2022/06/04 00:30:45;;;;;;;17.65;5.38;;;;;;;;;;10504594;28;20032;-75
2022/06/04 00:35:50;;;;;;;9.88;4.55;;;;;;;;;;10506950;28;20599;-75
2022/06/04 00:40:56;;;;;;;10.43;4.68;;;;;;;;;;10494315;28;20090;-76
2022/06/04 00:46:17;;;;;;;13.77;4.90;;;;;;;;;;10509536;28;20068;-77
2022/06/04 00:51:20;;;;;;;10.57;4.78;;;;;;;;;;10500854;28;20516;-76
2022/06/04 00:56:30;;;;;;;8.70;4.88;;;;;;;;;;10503504;28;20047;-76
2022/06/04 01:01:36;;;;;;;7.07;3.92;;;;;;;;;;10507418;28;20085;-76
2022/06/04 01:06:43;;;;;;;8.18;4.45;;;;;;;;;;10498562;28;20475;-77
2022/06/04 01:12:12;;;;;;;9.75;4.10;;;;;;;;;;10501370;28;20036;-76
2022/06/04 01:17:20;;;;;;;9.93;3.97;;;;;;;;;;10507513;28;20347;-76
2022/06/04 01:22:36;;;;;;;10.02;4.00;;;;;;;;;;10501630;28;20047;-76
2022/06/04 01:27:44;;;;;;;10.60;3.70;;;;;;;;;;10502866;28;20122;-76
2022/06/04 01:32:50;;;;;;;6.68;3.78;;;;;;;;;;10502479;28;20571;-76
2022/06/04 01:37:56;;;;;;;6.97;4.00;;;;;;;;;;10505417;28;20046;-77
2022/06/04 01:43:00;;;;;;;7.10;3.50;;;;;;;;;;10501596;28;20086;-75
2022/06/04 01:48:05;;;;;;;8.80;4.53;;;;;;;;;;10513968;28;20036;-76
2022/06/04 01:53:09;;;;;;;9.88;3.53;;;;;;;;;;10504516;28;20043;-76
2022/06/04 01:58:16;;;;;;;8.07;4.50;;;;;;;;;;10506486;28;20040;-76
2022/06/04 02:03:22;;;;;;;9.90;4.03;;;;;;;;;;10499199;28;20044;-76
2022/06/04 02:08:28;;;;;;;7.75;4.22;;;;;;;;;;10490366;28;20048;-76
2022/06/04 02:13:32;;;;;;;7.80;4.10;;;;;;;;;;10505502;28;20040;-76
2022/06/04 02:18:35;;;;;;;9.18;3.47;;;;;;;;;;10502810;28;20353;-76
2022/06/04 02:23:38;;;;;;;9.73;4.37;;;;;;;;;;10501355;28;20227;-75
2022/06/04 02:28:42;;;;;;;11.80;4.97;;;;;;;;;;10511350;28;20699;-76
2022/06/04 02:33:49;;;;;;;9.57;4.35;;;;;;;;;;10507144;28;20061;-77
2022/06/04 02:38:53;;;;;;;9.10;4.45;;;;;;;;;;10504680;28;20032;-76
2022/06/04 02:44:01;;;;;;;6.07;3.33;;;;;;;;;;10504118;28;20127;-76
2022/06/04 02:49:05;;;;;;;10.73;4.50;;;;;;;;;;10500800;28;20036;-77
2022/06/04 02:54:10;;;;;;;11.25;4.95;;;;;;;;;;10504667;28;20037;-77
2022/06/04 02:59:15;;;;;;;7.30;4.18;;;;;;;;;;10497114;28;20120;-75
2022/06/04 03:04:18;;;;;;;8.98;4.45;;;;;;;;;;10501293;28;20534;-75
2022/06/04 03:09:21;;;;;;;9.25;3.97;;;;;;;;;;10498826;28;20131;-76
2022/06/04 03:14:26;;;;;;;7.70;4.25;;;;;;;;;;10505736;28;20641;-77
2022/06/04 03:19:28;;;;;;;9.25;4.35;;;;;;;;;;10502848;28;20102;-76
2022/06/04 03:24:32;;;;;;;11.18;4.20;;;;;;;;;;10500734;28;20032;-77
2022/06/04 03:29:37;;;;;;;10.75;4.43;;;;;;;;;;10498112;28;20044;-78
2022/06/04 03:34:39;;;;;;;7.88;3.83;;;;;;;;;;10510112;28;20097;-75
2022/06/04 03:39:42;;;;;;;9.80;3.92;;;;;;;;;;10511199;28;20416;-77
2022/06/04 03:44:47;;;;;;;8.38;3.63;;;;;;;;;;10518110;28;20056;-77
2022/06/04 03:49:50;;;;;;;7.15;4.10;;;;;;;;;;10513482;28;20097;-76
2022/06/04 03:54:53;;;;;;;9.88;3.67;;;;;;;;;;10512605;28;20028;-74
2022/06/04 03:59:57;;;;;;;7.68;4.28;;;;;;;;;;10510937;28;20420;-76
2022/06/04 04:04:59;;;;;;;8.95;4.47;;;;;;;;;;10505638;28;20085;-76
2022/06/04 04:10:02;;;;;;;8.13;4.18;;;;;;;;;;10508046;28;20059;-74
2022/06/04 04:15:08;;;;;;;8.75;4.40;;;;;;;;;;10504016;28;20418;-76
2022/06/04 04:20:13;;;;;;;11.27;4.60;;;;;;;;;;10512041;28;20120;-77
2022/06/04 04:25:17;;;;;;;14.15;4.25;;;;;;;;;;10511541;28;20109;-76
2022/06/04 04:30:22;;;;;;;8.32;2.95;;;;;;;;;;10500846;28;20044;-75
2022/06/04 04:35:26;;;;;;;8.35;3.92;;;;;;;;;;10497146;28;20060;-76
2022/06/04 04:40:31;;;;;;;6.85;3.42;;;;;;;;;;10500087;28;20491;-75
2022/06/04 04:45:35;;;;;;;8.88;3.75;;;;;;;;;;10508904;28;20039;-74
2022/06/04 04:50:40;;;;;;;7.95;3.13;;;;;;;;;;10503361;28;20068;-76
2022/06/04 04:55:46;;;;;;;7.50;3.22;;;;;;;;;;10494323;28;20086;-75
2022/06/04 05:00:50;;;;;;;2.60;1.75;;;;;;;;;;10504961;28;20135;-77
2022/06/04 05:05:59;;;;;;;6.72;3.28;;;;;;;;;;10496365;28;20029;-75
2022/06/04 05:11:06;;;;;;;6.45;3.40;;;;;;;;;;10503632;28;20039;-76
2022/06/04 05:16:10;;;;;;;6.43;3.17;;;;;;;;;;10503431;28;20048;-77
2022/06/04 05:21:18;;;;;;;12.32;3.40;;;;;;;;;;10508079;28;20060;-76
2022/06/04 05:26:21;;;;;;;6.20;3.00;;;;;;;;;;10503120;28;20067;-78
2022/06/04 05:31:25;;;;;;;6.70;2.58;;;;;;;;;;10508916;28;20035;-75
2022/06/04 05:36:29;;;;;;;5.05;2.85;;;;;;;;;;10503811;28;20089;-76
2022/06/04 05:41:32;;;;;;;5.82;2.80;;;;;;;;;;10507474;28;20040;-75
2022/06/04 05:46:37;;;;;;;10.05;4.90;;;;;;;;;;10504727;28;20552;-74
2022/06/04 05:51:42;;;;;;;5.88;2.70;;;;;;;;;;10503712;28;20105;-75
2022/06/04 05:56:46;;;;;;;5.22;2.80;;;;;;;;;;10505153;28;20040;-77
2022/06/04 06:01:51;;;;;;;6.40;2.47;;;;;;;;;;10510104;28;20036;-75
2022/06/04 06:06:58;;;;;;;5.22;2.67;;;;;;;;;;10498266;28;20028;-74
2022/06/04 06:12:01;;;;;;;7.05;2.50;;;;;;;;;;10502330;28;20090;-75
2022/06/04 06:17:04;;;;;;;;;;;;;;;;;;10497572;28;20032;-75
2022/06/04 06:22:08;;;;;;;3.90;2.20;;;;;;;;;;10509362;28;19920;-75
2022/06/04 06:27:11;;;;;;;4.57;2.05;;;;;;;;;;10500263;28;20048;-75
2022/06/04 06:32:13;;;;;;;5.03;2.35;;;;;;;;;;10502119;28;20039;-75
2022/06/04 06:37:18;;;;;;;4.13;2.30;;;;;;;;;;10496098;28;20067;-75
2022/06/04 06:42:20;;;;;;;6.45;2.75;;;;;;;;;;10498007;28;20083;-76
2022/06/04 06:47:23;;;;;;;8.90;2.83;;;;;;;;;;10498972;28;20090;-77
2022/06/04 06:52:27;;;;;;;6.15;2.25;;;;;;;;;;10503390;28;20150;-76
2022/06/04 06:57:30;;;;;;;3.80;2.10;;;;;;;;;;10502066;28;20071;-75
2022/06/04 07:02:33;;;;;;;5.03;2.90;;;;;;;;;;10510475;28;20058;-75
2022/06/04 07:07:37;;;;;;;3.30;2.35;;;;;;;;;;10502417;28;20220;-76
2022/06/04 07:12:47;;;;;;;6.50;2.20;;;;;;;;;;10508465;28;20109;-75
2022/06/04 07:17:57;;;;;;;5.95;2.50;;;;;;;;;;10509826;28;20047;-75
2022/06/04 07:23:05;;;;;;;6.28;2.40;;;;;;;;;;10504078;28;20981;-77
2022/06/04 07:28:08;;;;;;;6.55;2.60;;;;;;;;;;10510902;28;20044;-75
2022/06/04 07:33:11;;;;;;;4.47;2.35;;;;;;;;;;10511184;28;20032;-75
2022/06/04 07:38:16;;;;;;;4.78;2.00;;;;;;;;;;10504448;28;20047;-76
2022/06/04 07:43:18;;;;;;;3.58;2.50;;;;;;;;;;10511787;28;20070;-75
2022/06/04 07:48:21;;;;;;;2.85;1.60;;;;;;;;;;10517854;28;20405;-75
2022/06/04 07:53:31;;;;;;;3.67;1.80;;;;;;;;;;10511724;28;20040;-76
2022/06/04 07:58:34;;;;;;;4.68;1.55;;;;;;;;;;10511057;28;20052;-76
2022/06/04 08:03:38;;;;;;;3.90;1.67;;;;;;;;;;10514124;28;20550;-75
2022/06/04 08:08:42;;;;;;;5.63;1.80;;;;;;;;;;10508222;28;20060;-76
2022/06/04 08:13:45;;;;;;;2.83;1.60;;;;;;;;;;10518335;28;20101;-77
2022/06/04 08:18:48;;;;;;;3.42;1.60;;;;;;;;;;10504354;28;20613;-75
2022/06/04 08:23:52;;;;;;;3.38;1.77;;;;;;;;;;10507466;28;20508;-75
2022/06/04 08:28:54;;;;;;;2.38;1.80;;;;;;;;;;10506701;28;20032;-75
2022/06/04 08:33:57;;;;;;;4.20;1.70;;;;;;;;;;10508110;28;20531;-76
2022/06/04 08:39:01;;;;;;;6.15;2.20;;;;;;;;;;10504341;28;20060;-76
2022/06/04 08:44:08;;;;;;;3.03;1.80;;;;;;;;;;10511330;28;20044;-76
2022/06/04 08:49:14;;;;;;;3.30;1.98;;;;;;;;;;10503450;28;20036;-76
2022/06/04 08:59:45;;;;;;;3.22;1.83;;;;;;;;;;10492934;28;20063;-77
2022/06/04 09:04:53;;;;;;;2.92;1.75;;;;;;;;;;10501870;28;20141;-75
2022/06/04 09:10:01;;;;;;;1.67;1.45;;;;;;;;;;10500348;28;20036;-77
2022/06/04 09:15:13;;;;;;;3.47;1.73;;;;;;;;;;10509104;28;20106;-77
2022/06/04 09:20:19;;;;;;;3.70;2.33;;;;;;;;;;10498484;28;20158;-75
2022/06/04 09:25:24;;;;;;;2.50;1.30;;;;;;;;;;10503651;28;20036;-76
2022/06/04 09:30:28;;;;;;;4.43;1.60;;;;;;;;;;10500554;28;20147;-75
2022/06/04 09:35:32;;;;;;;2.38;1.58;;;;;;;;;;10504459;28;20029;-76
2022/06/04 09:40:38;;;;;;;3.30;1.60;;;;;;;;;;10502181;28;20136;-75
2022/06/04 09:45:41;;;;;;;2.75;1.90;;;;;;;;;;10506542;28;20063;-75
2022/06/04 09:50:51;;;;;;;3.92;2.00;;;;;;;;;;10499498;28;20669;-76
2022/06/04 09:55:57;;;;;;;5.57;2.15;;;;;;;;;;10503566;28;20090;-77
2022/06/04 10:01:02;;;;;;;4.13;2.33;;;;;;;;;;10502084;28;20047;-78
2022/06/04 10:06:06;;;;;;;3.85;1.60;;;;;;;;;;10498127;28;20436;-76
2022/06/04 10:11:17;;;;;;;3.72;2.50;;;;;;;;;;10502482;28;20039;-75
2022/06/04 10:16:22;;;;;;;3.75;2.20;;;;;;;;;;10502107;28;20127;-75
2022/06/04 10:21:27;;;;;;;4.95;2.10;;;;;;;;;;10503720;28;20052;-76
2022/06/04 10:26:38;;;;;;;4.45;2.50;;;;;;;;;;10496635;28;20064;-76
2022/06/04 10:31:48;;;;;;;4.70;2.70;;;;;;;;;;10495795;28;20128;-75
2022/06/04 10:36:54;;;;;;;4.38;2.58;;;;;;;;;;10497262;28;20037;-76
2022/06/04 10:42:02;;;;;;;4.25;2.58;;;;;;;;;;10496234;28;20032;-76
2022/06/04 10:47:17;;;;;;;3.53;2.45;;;;;;;;;;10498235;28;20115;-76
2022/06/04 10:52:24;;;;;;;5.38;2.80;;;;;;;;;;10503084;28;20143;-74
2022/06/04 10:57:33;;;;;;;4.60;2.67;;;;;;;;;;10502922;28;20044;-75
2022/06/04 11:02:39;;;;;;;4.95;2.33;;;;;;;;;;10490699;28;20070;-76
2022/06/04 11:07:52;;;;;;;4.32;2.55;;;;;;;;;;10500620;28;20066;-77
2022/06/04 11:13:02;;;;;;;6.88;2.85;;;;;;;;;;10501853;28;20161;-77
2022/06/04 11:18:07;;;;;;;6.38;3.30;;;;;;;;;;10497294;28;20040;-77
2022/06/04 11:23:16;;;;;;;3.35;2.60;;;;;;;;;;10497790;28;20263;-78
2022/06/04 11:28:23;;;;;;;9.52;3.00;;;;;;;;;;10507032;28;20063;-76
2022/06/04 11:33:32;;;;;;;5.53;2.67;;;;;;;;;;10496084;28;20060;-76
2022/06/04 11:38:51;;;;;;;3.65;2.50;;;;;;;;;;10498436;28;20041;-77
2022/06/04 11:44:11;;;;;;;5.68;2.60;;;;;;;;;;10504440;28;20566;-77
2022/06/04 11:49:22;;;;;;;4.75;2.70;;;;;;;;;;10498538;28;20045;-77
2022/06/04 11:54:29;;;;;;;4.88;2.75;;;;;;;;;;10507780;28;20032;-77
2022/06/04 11:59:38;;;;;;;9.15;2.90;;;;;;;;;;10506312;28;20066;-76
2022/06/04 12:04:44;;;;;;;3.45;2.60;;;;;;;;;;10504132;28;20032;-78
2022/06/04 12:09:50;;;;;;;6.25;2.83;;;;;;;;;;10511031;28;20064;-76
2022/06/04 12:14:56;;;;;;;4.25;2.42;;;;;;;;;;10503029;28;20037;-76
2022/06/04 12:25:35;;;;;;;3.78;2.53;;;;;;;;;;10503746;28;20044;-74
2022/06/04 12:30:42;;;;;;;3.50;2.63;;;;;;;;;;10499966;28;20102;-77
2022/06/04 12:35:53;;;;;;;4.15;2.30;;;;;;;;;;10506293;28;20037;-76
2022/06/04 12:41:10;;;;;;;4.90;2.83;;;;;;;;;;10505151;28;20089;-75
2022/06/04 12:46:29;;;;;;;4.95;2.47;;;;;;;;;;10502610;28;20033;-76
2022/06/04 12:51:50;;;;;;;4.82;2.20;;;;;;;;;;10506864;28;20040;-76
2022/06/04 12:56:54;;;;;;;3.13;2.47;;;;;;;;;;10500260;28;20029;-77
2022/06/04 13:01:58;;;;;;;4.38;2.70;;;;;;;;;;10507705;28;20032;-77
2022/06/04 13:07:03;;;;;;;6.50;4.25;;;;;;;;;;10500451;28;20042;-76
2022/06/04 13:12:14;;;;;;;3.92;2.40;;;;;;;;;;10502857;28;20044;-74
2022/06/04 13:17:17;;;;;;;;;;;;;;;;;;10505332;28;20079;-74
2022/06/04 13:22:25;;;;;;;4.57;2.63;;;;;;;;;;10501549;28;19927;-76
2022/06/04 13:27:35;;;;;;;4.15;2.50;;;;;;;;;;10502793;28;20556;-77
2022/06/04 13:32:37;;;;;;;3.47;2.40;;;;;;;;;;10509138;28;20066;-76
2022/06/04 13:37:42;;;;;;;4.43;2.60;;;;;;;;;;10508098;28;20056;-76
2022/06/04 13:42:47;;;;;;;4.40;2.42;;;;;;;;;;10514659;28;20036;-78
2022/06/04 13:47:53;;;;;;;5.25;3.22;;;;;;;;;;10506402;28;20036;-76
2022/06/04 13:52:59;;;;;;;5.40;2.42;;;;;;;;;;10503638;28;20108;-77
2022/06/04 13:58:04;;;;;;;3.95;2.45;;;;;;;;;;10506314;28;20043;-76
2022/06/04 14:03:13;;;;;;;12.35;7.35;;;;;;;;;;10503677;28;20130;-77
2022/06/04 14:08:19;;;;;;;4.57;2.85;;;;;;;;;;10512498;28;20037;-77
2022/06/04 14:13:29;;;;;;;6.55;4.13;;;;;;;;;;10506252;28;20508;-77
2022/06/04 14:18:39;;;;;;;7.07;2.63;;;;;;;;;;10501897;28;20044;-77
2022/06/04 14:23:46;;;;;;;3.95;2.28;;;;;;;;;;10502688;28;20050;-78
2022/06/04 14:28:53;;;;;;;4.45;2.80;;;;;;;;;;10504134;28;20028;-77
2022/06/04 14:33:57;;;;;;;9.20;4.07;;;;;;;;;;10495655;28;20097;-76
2022/06/04 14:39:02;;;;;;;4.88;2.75;;;;;;;;;;10504737;28;20032;-74
2022/06/04 14:44:16;;;;;;;7.32;2.85;;;;;;;;;;10503455;28;20043;-77
2022/06/04 14:49:27;;;;;;;7.22;2.75;;;;;;;;;;10504059;28;20043;-76
2022/06/04 14:54:32;;;;;;;5.28;2.78;;;;;;;;;;10503317;28;20532;-77
2022/06/04 14:59:58;;;;;;;5.22;2.72;;;;;;;;;;10507149;28;20068;-77
2022/06/04 15:05:28;;;;;;;6.65;3.67;;;;;;;;;;10496010;28;20048;-76
2022/06/04 15:10:33;;;;;;;5.95;3.20;;;;;;;;;;10487158;28;20048;-77
2022/06/04 15:15:46;;;;;;;7.00;3.65;;;;;;;;;;10498837;28;20048;-75
2022/06/04 15:20:51;;;;;;;7.18;3.53;;;;;;;;;;10503797;28;20051;-77
2022/06/04 15:25:58;;;;;;;7.72;3.75;;;;;;;;;;10502442;28;20032;-77
2022/06/04 15:36:35;;;;;;;10.48;4.68;;;;;;;;;;10509861;28;20125;-76
2022/06/04 15:41:49;;;;;;;8.35;3.50;;;;;;;;;;10504972;28;20033;-77
2022/06/04 15:46:54;;;;;;;9.32;5.25;;;;;;;;;;10508597;28;20412;-78
2022/06/04 15:57:38;;;;;;;6.70;3.60;;;;;;;;;;10504073;28;20044;-77
2022/06/04 16:02:43;;;;;;;4.97;3.47;;;;;;;;;;10514783;28;20427;-78
2022/06/04 16:08:02;;;;;;;8.32;3.05;;;;;;;;;;10507925;28;20181;-76
2022/06/04 16:13:25;;;;;;;5.95;3.10;;;;;;;;;;10510156;28;20040;-79
2022/06/04 16:18:33;;;;;;;7.35;3.20;;;;;;;;;;10510308;28;20505;-78
2022/06/04 16:23:37;;;;;;;5.28;3.42;;;;;;;;;;10507825;28;20059;-78
2022/06/04 16:28:51;;;;;;;5.32;3.28;;;;;;;;;;10496889;28;20044;-77
2022/06/04 16:33:54;;;;;;;8.25;3.25;;;;;;;;;;10504578;28;20045;-78
2022/06/04 16:38:58;;;;;;;4.82;3.30;;;;;;;;;;10501825;28;20549;-76
2022/06/04 16:44:10;;;;;;;14.52;8.10;;;;;;;;;;10508369;28;20039;-77
2022/06/04 16:54:35;;;;;;;6.45;3.30;;;;;;;;;;10499423;28;20036;-75
2022/06/04 16:59:40;;;;;;;9.05;4.05;;;;;;;;;;10505501;28;20037;-77
2022/06/04 17:04:46;;;;;;;9.30;4.35;;;;;;;;;;10513633;28;20036;-77
2022/06/04 17:10:07;;;;;;;9.13;5.53;;;;;;;;;;10506741;28;20470;-76
2022/06/04 17:15:17;;;;;;;7.53;4.20;;;;;;;;;;10504339;28;20168;-76
2022/06/04 17:20:23;;;;;;;7.60;4.72;;;;;;;;;;10503778;28;20626;-77
2022/06/04 17:25:34;;;;;;;8.48;4.43;;;;;;;;;;10502332;28;20433;-77
2022/06/04 17:30:45;;;;;;;9.25;6.03;;;;;;;;;;10507600;28;20033;-78
2022/06/04 17:35:52;;;;;;;6.45;3.60;;;;;;;;;;10508103;28;20083;-78
2022/06/04 17:40:58;;;;;;;7.00;4.35;;;;;;;;;;10499043;28;20079;-75
2022/06/04 17:46:02;;;;;;;7.72;5.18;;;;;;;;;;10500039;28;20123;-75
2022/06/04 17:51:05;;;;;;;7.07;4.13;;;;;;;;;;10499825;28;20044;-75
2022/06/04 17:56:08;;;;;;;;;;;;;;;;;;10498259;28;20510;-76
2022/06/04 18:01:13;;;;;;;6.78;3.88;;;;;;;;;;10506716;28;19924;-74
2022/06/04 18:06:16;;;;;;;8.40;4.13;;;;;;;;;;10505560;28;20649;-77
2022/06/04 18:11:19;;;;;;;14.15;7.68;;;;;;;;;;10501657;28;20044;-76
2022/06/04 18:16:23;;;;;;;13.52;6.35;;;;;;;;;;10501229;28;20036;-75
2022/06/04 18:21:27;;;;;;;14.38;6.53;;;;;;;;;;10499778;28;20131;-77
2022/06/04 18:26:30;;;;;;;;;;;;;;;;;;10493786;28;20028;-74
2022/06/04 18:31:34;;;;;;;13.20;7.37;;;;;;;;;;10496985;28;19924;-76
2022/06/04 18:36:38;;;;;;;10.32;6.88;;;;;;;;;;10491462;28;20620;-74
2022/06/04 18:41:43;;;;;;;12.18;7.65;;;;;;;;;;10497756;28;20052;-77
2022/06/04 18:57:29;;;;;;;12.35;8.05;;;;;;;;;;10507435;28;20072;-77
2022/06/04 19:02:35;;;;;;;13.13;7.25;;;;;;;;;;10496793;28;20071;-77
2022/06/04 19:18:20;;;;;;;13.98;6.88;;;;;;;;;;10505893;28;20762;-77
2022/06/04 19:28:43;;;;;;;11.70;7.28;;;;;;;;;;10496605;28;20033;-76
2022/06/04 19:33:47;;;;;;;10.68;7.20;;;;;;;;;;10493813;28;20056;-75
2022/06/04 19:38:50;;;;;;;9.98;7.40;;;;;;;;;;10502605;28;20056;-76
2022/06/04 19:43:53;;;;;;;11.63;7.45;;;;;;;;;;10496146;28;20036;-76
2022/06/04 19:48:58;;;;;;;10.27;6.60;;;;;;;;;;10499886;28;20040;-76
2022/06/04 19:59:21;;;;;;;9.52;6.80;;;;;;;;;;10501413;28;20445;-76
2022/06/04 20:04:25;;;;;;;9.75;6.28;;;;;;;;;;10495051;28;20037;-77
2022/06/04 20:09:28;;;;;;;10.05;6.90;;;;;;;;;;10504712;28;20096;-76
2022/06/04 20:14:32;;;;;;;10.10;6.43;;;;;;;;;;10494438;28;20040;-77
2022/06/04 20:19:37;;;;;;;8.75;5.80;;;;;;;;;;10506082;28;20633;-76
2022/06/04 20:24:41;;;;;;;8.70;5.00;;;;;;;;;;10508361;28;20078;-76
2022/06/04 20:29:45;;;;;;;9.60;5.07;;;;;;;;;;10513254;28;20110;-77
2022/06/04 20:34:50;;;;;;;7.13;4.55;;;;;;;;;;10507564;28;20037;-76
2022/06/04 20:39:53;;;;;;;10.55;4.78;;;;;;;;;;10502741;28;20036;-76
2022/06/04 20:44:56;;;;;;;7.10;4.80;;;;;;;;;;10504153;28;20047;-76
2022/06/04 20:50:00;;;;;;;6.50;4.65;;;;;;;;;;10500026;28;20055;-77
2022/06/04 20:55:03;;;;;;;7.22;4.43;;;;;;;;;;10500526;28;20040;-78
2022/06/04 21:00:07;;;;;;;10.25;4.20;;;;;;;;;;10504242;28;20074;-78
2022/06/04 21:05:11;;;;;;;9.73;4.30;;;;;;;;;;10508675;28;20040;-77
2022/06/04 21:10:14;;;;;;;10.25;4.05;;;;;;;;;;10498180;28;20025;-79
2022/06/04 21:15:16;;;;;;;8.00;4.43;;;;;;;;;;10505358;28;20080;-76
2022/06/04 21:20:21;;;;;;;7.25;4.63;;;;;;;;;;10509071;28;20148;-78
2022/06/04 21:25:24;;;;;;;6.85;3.92;;;;;;;;;;10497323;28;20063;-77
2022/06/04 21:30:27;;;;;;;8.20;4.60;;;;;;;;;;10506810;28;20104;-78
2022/06/04 21:40:51;;;;;;;7.40;4.55;;;;;;;;;;10501599;28;20040;-76
2022/06/04 21:45:54;;;;;;;9.38;4.60;;;;;;;;;;10507343;28;20078;-78
2022/06/04 21:51:00;;;;;;;9.10;4.35;;;;;;;;;;10512716;28;20474;-76
2022/06/04 21:56:03;;;;;;;7.45;4.55;;;;;;;;;;10515976;28;20039;-78
2022/06/04 22:01:08;;;;;;;10.02;4.13;;;;;;;;;;10516604;28;20060;-77
2022/06/04 22:06:16;;;;;;;7.38;4.57;;;;;;;;;;10499582;28;20537;-77
2022/06/04 22:11:20;;;;;;;8.25;4.65;;;;;;;;;;10507457;28;20059;-77
2022/06/04 22:16:23;;;;;;;11.00;4.95;;;;;;;;;;10500056;28;20042;-76
2022/06/04 22:21:29;;;;;;;7.63;4.57;;;;;;;;;;10508791;28;20127;-78
2022/06/04 22:26:32;;;;;;;9.30;5.50;;;;;;;;;;10499731;28;20079;-78
2022/06/04 22:31:34;;;;;;;6.82;4.88;;;;;;;;;;10498803;28;20048;-78
2022/06/04 22:36:39;;;;;;;8.52;5.07;;;;;;;;;;10502973;28;20304;-78
2022/06/04 22:41:41;;;;;;;8.18;4.68;;;;;;;;;;10509937;28;20048;-76
2022/06/04 22:46:44;;;;;;;8.27;4.82;;;;;;;;;;10511796;28;20067;-78
2022/06/04 22:51:51;;;;;;;12.18;5.55;;;;;;;;;;10514904;28;20044;-77
2022/06/04 22:56:57;;;;;;;10.30;5.78;;;;;;;;;;10512084;28;20138;-79
2022/06/04 23:02:00;;;;;;;10.65;5.55;;;;;;;;;;10511654;28;20069;-77
2022/06/04 23:07:02;;;;;;;;;;;;;;;;;;10506693;28;20618;-78
2022/06/04 23:28:10;;;;;;;9.52;5.53;;;;;;;;;;10508637;28;20028;-77
2022/06/04 23:33:13;;;;;;;13.05;5.72;;;;;;;;;;10500727;28;20444;-78
2022/06/04 23:38:17;;;;;;;9.35;5.32;;;;;;;;;;10498261;28;20024;-77
2022/06/04 23:43:21;;;;;;;11.55;5.90;;;;;;;;;;10516237;28;20056;-78
2022/06/04 23:48:25;;;;;;;11.05;6.07;;;;;;;;;;10509447;28;20032;-77
2022/06/04 23:53:28;;;;;;;10.70;5.60;;;;;;;;;;10512677;28;20066;-76
2022/06/04 23:58:32;;;;;;;9.75;5.63;;;;;;;;;;10513083;28;20082;-78
